createdAt,value
2019-01-31T00:02:21.234Z,71.30
2019-01-31T00:05:12.880Z,70.85
2019-01-31T00:08:16.144Z,70.46
2019-01-31T00:10:52.580Z,70.49
2019-01-31T00:13:34.917Z,70.39
2019-01-31T00:16:55.322Z,70.70
2019-01-31T00:19:46.482Z,70.85
2019-01-31T00:22:42.326Z,70.24
2019-01-31T00:25:30.685Z,70.70
2019-01-31T00:28:24.950Z,70.93
2019-01-31T00:31:27.968Z,70.87
2019-01-31T00:34:39.447Z,70.66
2019-01-31T00:37:24.809Z,70.89
2019-01-31T00:40:23.586Z,71.32
2019-01-31T00:43:12.442Z,71.13
2019-01-31T00:46:16.059Z,70.94
2019-01-31T00:49:07.130Z,71.10
2019-01-31T00:51:49.511Z,70.49
2019-01-31T00:55:00.888Z,70.72
2019-01-31T00:57:58.629Z,70.48
2019-01-31T01:00:49.696Z,70.97
2019-01-31T01:03:32.107Z,70.83
2019-01-31T01:06:20.669Z,70.63
2019-01-31T01:09:07.777Z,70.25
2019-01-31T01:12:10.878Z,70.34
2019-01-31T01:15:11.616Z,69.76
2019-01-31T01:17:48.161Z,69.65
2019-01-31T01:20:33.586Z,69.82
2019-01-31T01:23:40.201Z,69.72
2019-01-31T01:26:27.864Z,70.06
2019-01-31T01:29:23.910Z,70.26
2019-01-31T01:32:00.398Z,70.24
2019-01-31T01:35:00.941Z,69.91
2019-01-31T01:38:04.310Z,69.71
2019-01-31T01:40:55.594Z,69.33
2019-01-31T01:44:12.155Z,69.61
2019-01-31T01:46:57.788Z,70.17
2019-01-31T01:49:49.259Z,69.94
2019-01-31T01:52:46.574Z,69.76
2019-01-31T01:55:42.786Z,70.02
2019-01-31T01:58:25.006Z,70.21
2019-01-31T02:01:10.125Z,70.13
2019-01-31T02:04:04.872Z,70.10
2019-01-31T02:06:50.172Z,70.56
2019-01-31T02:09:44.511Z,70.54
2019-01-31T02:12:38.236Z,70.54
2019-01-31T02:15:23.325Z,70.30
2019-01-31T02:18:11.141Z,70.44
2019-01-31T02:20:59.601Z,70.02
2019-01-31T02:23:36.075Z,70.16
2019-01-31T02:26:34.461Z,70.24
2019-01-31T02:29:19.500Z,70.66
2019-01-31T02:32:14.334Z,70.60
2019-01-31T02:35:02.592Z,70.41
2019-01-31T02:37:39.328Z,70.73
2019-01-31T02:40:30.891Z,70.62
2019-01-31T02:43:26.878Z,70.21
2019-01-31T02:46:17.807Z,70.01
2019-01-31T02:49:12.592Z,69.76
2019-01-31T02:52:03.861Z,70.02
2019-01-31T02:54:52.066Z,69.94
2019-01-31T02:58:09.637Z,70.55
2019-01-31T03:00:52.064Z,70.81
2019-01-31T03:03:43.534Z,70.89
2019-01-31T03:06:37.857Z,70.34
2019-01-31T03:09:34.128Z,70.86
2019-01-31T03:12:30.902Z,70.52
2019-01-31T03:15:22.767Z,70.31
2019-01-31T03:18:17.434Z,70.10
2019-01-31T03:21:08.991Z,69.81
2019-01-31T03:24:20.375Z,69.78
2019-01-31T03:27:02.591Z,69.52
2019-01-31T03:30:01.454Z,70.10
2019-01-31T03:32:46.633Z,70.17
2019-01-31T03:35:28.720Z,69.94
2019-01-31T03:38:26.349Z,69.99
2019-01-31T03:41:23.906Z,70.08
2019-01-31T03:44:11.512Z,69.98
2019-01-31T03:46:50.675Z,70.00
2019-01-31T03:49:35.667Z,69.97
2019-01-31T03:52:12.252Z,69.99
2019-01-31T03:55:17.638Z,69.84
2019-01-31T03:58:15.176Z,70.38
2019-01-31T04:01:24.882Z,70.57
2019-01-31T04:04:16.506Z,70.63
2019-01-31T04:06:48.211Z,71.09
2019-01-31T04:09:19.923Z,71.15
2019-01-31T04:11:51.600Z,70.64
2019-01-31T04:14:23.291Z,70.58
2019-01-31T04:16:55.137Z,70.28
2019-01-31T04:19:26.807Z,70.29
2019-01-31T04:21:58.386Z,70.38
2019-01-31T04:24:30.226Z,70.47
2019-01-31T04:27:01.880Z,70.57
2019-01-31T04:29:33.587Z,70.73
2019-01-31T04:32:05.289Z,70.72
2019-01-31T04:34:36.882Z,70.79
2019-01-31T04:37:08.448Z,70.69
2019-01-31T04:39:40.141Z,70.56
2019-01-31T04:42:11.758Z,70.74
2019-01-31T04:44:43.756Z,71.19
2019-01-31T04:47:15.397Z,71.22
2019-01-31T04:49:47.032Z,71.07
2019-01-31T04:52:18.672Z,70.77
2019-01-31T04:54:50.264Z,70.65
2019-01-31T04:57:21.945Z,70.46
2019-01-31T04:59:53.559Z,70.26
2019-01-31T05:02:25.251Z,70.40
2019-01-31T05:04:56.947Z,70.53
2019-01-31T05:07:28.598Z,70.74
2019-01-31T05:10:00.508Z,70.94
2019-01-31T05:12:32.123Z,71.45
2019-01-31T05:15:04.059Z,71.74
2019-01-31T05:17:35.706Z,72.10
2019-01-31T05:20:12.247Z,72.43
2019-01-31T05:22:43.935Z,72.20
2019-01-31T05:25:18.522Z,72.25
2019-01-31T05:27:51.853Z,72.77
2019-01-31T05:30:24.313Z,72.57
2019-01-31T05:32:58.942Z,72.54
2019-01-31T05:35:29.914Z,72.75
2019-01-31T05:38:01.591Z,73.46
2019-01-31T05:40:33.290Z,73.69
2019-01-31T05:43:05.243Z,73.89
2019-01-31T05:45:36.839Z,73.80
2019-01-31T05:48:09.076Z,73.41
2019-01-31T05:50:40.678Z,73.26
2019-01-31T05:53:13.081Z,73.83
2019-01-31T05:55:45.871Z,73.52
2019-01-31T05:58:17.958Z,73.53
2019-01-31T06:00:49.757Z,72.98
2019-01-31T06:03:24.772Z,72.51
2019-01-31T06:05:56.741Z,72.05
2019-01-31T06:08:29.364Z,71.98
2019-01-31T06:11:07.647Z,72.23
2019-01-31T06:13:34.562Z,72.08
2019-01-31T06:16:06.984Z,71.79
2019-01-31T06:18:38.848Z,71.79
2019-01-31T06:21:13.677Z,71.92
2019-01-31T06:23:44.370Z,72.08
2019-01-31T06:26:15.984Z,71.92
2019-01-31T06:28:47.652Z,72.03
2019-01-31T06:31:19.270Z,72.19
2019-01-31T06:33:50.989Z,72.13
2019-01-31T06:36:24.064Z,72.07
2019-01-31T06:38:55.714Z,72.38
2019-01-31T06:41:27.476Z,72.24
2019-01-31T06:43:59.143Z,72.13
2019-01-31T06:46:30.854Z,71.91
2019-01-31T06:49:02.450Z,71.86
2019-01-31T06:51:34.108Z,72.14
2019-01-31T06:54:07.789Z,72.47
2019-01-31T06:56:39.620Z,72.87
2019-01-31T06:59:11.288Z,72.72
2019-01-31T07:01:42.932Z,72.89
2019-01-31T07:04:14.479Z,73.05
2019-01-31T07:06:46.031Z,72.84
2019-01-31T07:09:17.622Z,73.03
2019-01-31T07:11:49.322Z,72.84
2019-01-31T07:14:20.949Z,73.06
2019-01-31T07:16:52.538Z,72.98
2019-01-31T07:19:24.205Z,72.78
2019-01-31T07:21:55.797Z,72.91
2019-01-31T07:24:27.438Z,72.93
2019-01-31T07:26:59.039Z,72.53
2019-01-31T07:29:30.721Z,72.44
2019-01-31T07:32:03.672Z,72.45
2019-01-31T07:34:35.490Z,72.20
2019-01-31T07:37:07.174Z,72.15
2019-01-31T07:39:41.976Z,72.05
2019-01-31T07:42:13.695Z,72.47
2019-01-31T07:44:45.360Z,72.25
2019-01-31T07:47:17.048Z,71.98
2019-01-31T07:49:48.672Z,71.88
2019-01-31T07:52:20.318Z,71.59
2019-01-31T07:54:51.888Z,70.93
2019-01-31T07:57:23.634Z,71.04
2019-01-31T07:59:55.378Z,70.67
2019-01-31T08:02:27.117Z,70.41
2019-01-31T08:04:58.778Z,70.60
2019-01-31T08:07:30.348Z,70.75
2019-01-31T08:10:01.912Z,70.29
2019-01-31T08:12:34.683Z,69.61
2019-01-31T08:15:11.341Z,69.58
2019-01-31T08:17:43.000Z,69.50
2019-01-31T08:20:21.495Z,70.05
2019-01-31T08:22:53.180Z,69.64
2019-01-31T08:25:25.700Z,69.43
2019-01-31T08:27:57.323Z,69.69
2019-01-31T08:30:38.925Z,70.19
2019-01-31T08:33:10.543Z,70.53
2019-01-31T08:35:42.113Z,70.70
2019-01-31T08:38:13.715Z,70.31
2019-01-31T08:40:45.300Z,69.86
2019-01-31T08:43:16.978Z,69.76
2019-01-31T08:45:48.616Z,69.43
2019-01-31T08:48:20.176Z,69.36
2019-01-31T08:50:51.862Z,69.54
2019-01-31T08:53:23.524Z,68.75
2019-01-31T08:55:55.256Z,67.70
2019-01-31T08:58:26.959Z,68.09
2019-01-31T09:00:58.698Z,68.35
2019-01-31T09:03:31.314Z,68.39
2019-01-31T09:06:02.895Z,68.38
2019-01-31T09:08:34.742Z,68.17
2019-01-31T09:11:09.966Z,68.64
2019-01-31T09:13:41.665Z,67.93
2019-01-31T09:16:13.404Z,66.70
2019-01-31T09:18:45.316Z,66.68
2019-01-31T09:21:27.672Z,66.58
2019-01-31T09:24:15.840Z,66.41
2019-01-31T09:27:06.729Z,66.20
2019-01-31T09:30:13.406Z,65.82
2019-01-31T09:33:21.452Z,65.33
2019-01-31T09:36:13.063Z,65.09
2019-01-31T09:39:13.237Z,64.78
2019-01-31T09:42:04.685Z,64.65
2019-01-31T09:45:09.699Z,65.23
2019-01-31T09:48:00.903Z,64.81
2019-01-31T09:51:07.300Z,64.44
2019-01-31T09:53:52.850Z,64.25
2019-01-31T09:56:38.124Z,64.08
2019-01-31T09:59:20.557Z,64.21
2019-01-31T10:02:24.254Z,64.33
2019-01-31T10:05:00.865Z,64.16
2019-01-31T10:07:53.906Z,64.01
2019-01-31T10:10:56.008Z,64.21
2019-01-31T10:13:44.662Z,63.81
2019-01-31T10:16:43.569Z,64.39
2019-01-31T10:19:26.068Z,64.60
2019-01-31T10:22:22.177Z,64.40
2019-01-31T10:25:19.186Z,64.57
2019-01-31T10:28:16.463Z,64.36
2019-01-31T10:31:12.201Z,64.25
2019-01-31T10:33:57.456Z,63.83
2019-01-31T10:36:37.100Z,63.41
2019-01-31T10:39:37.948Z,63.43
2019-01-31T10:42:20.415Z,62.86
2019-01-31T10:45:25.790Z,62.73
2019-01-31T10:48:33.909Z,62.88
2019-01-31T10:51:10.477Z,63.30
2019-01-31T10:54:07.694Z,63.47
2019-01-31T10:56:58.583Z,63.14
2019-01-31T10:59:57.569Z,62.42
2019-01-31T11:03:13.356Z,61.94
2019-01-31T11:06:01.994Z,62.60
2019-01-31T11:08:47.292Z,62.24
2019-01-31T11:11:30.307Z,62.27
2019-01-31T11:14:12.583Z,62.60
2019-01-31T11:17:16.013Z,62.16
2019-01-31T11:19:55.480Z,61.45
2019-01-31T11:22:56.248Z,60.97
2019-01-31T11:25:56.540Z,61.00
2019-01-31T11:28:41.539Z,60.28
2019-01-31T11:31:45.223Z,60.36
2019-01-31T11:34:33.085Z,60.58
2019-01-31T11:37:17.250Z,59.72
2019-01-31T11:40:11.553Z,61.72
2019-01-31T11:43:11.871Z,60.02
2019-01-31T11:46:14.494Z,59.13
2019-01-31T11:49:05.650Z,58.43
2019-01-31T11:52:09.137Z,58.11
2019-01-31T11:55:04.780Z,57.79
2019-01-31T11:58:01.640Z,57.24
2019-01-31T12:00:33.876Z,56.97
2019-01-31T12:03:05.573Z,57.62
2019-01-31T12:05:37.273Z,57.48
2019-01-31T12:08:08.956Z,57.41
2019-01-31T12:10:40.545Z,57.29
2019-01-31T12:13:22.718Z,57.36
2019-01-31T12:15:45.455Z,57.52
2019-01-31T12:18:17.026Z,57.18
2019-01-31T12:20:48.577Z,56.34
2019-01-31T12:23:20.235Z,55.94
2019-01-31T12:25:51.913Z,55.71
2019-01-31T12:28:23.551Z,56.76
2019-01-31T12:30:55.296Z,56.42
2019-01-31T12:33:27.003Z,55.36
2019-01-31T12:35:58.627Z,54.69
2019-01-31T12:38:36.790Z,54.61
2019-01-31T12:41:04.892Z,54.37
2019-01-31T12:43:36.595Z,54.24
2019-01-31T12:46:08.294Z,54.51
2019-01-31T12:48:40.008Z,54.23
2019-01-31T12:51:11.586Z,53.83
2019-01-31T12:53:43.159Z,54.08
2019-01-31T12:56:14.875Z,54.18
2019-01-31T12:58:46.448Z,54.21
2019-01-31T13:01:18.173Z,54.05
2019-01-31T13:03:49.761Z,53.92
2019-01-31T13:06:21.423Z,54.14
2019-01-31T13:08:53.948Z,54.61
2019-01-31T13:11:31.888Z,54.51
2019-01-31T13:14:03.906Z,55.02
2019-01-31T13:16:39.948Z,56.11
2019-01-31T13:19:12.791Z,55.08
2019-01-31T13:21:44.371Z,54.55
2019-01-31T13:24:16.018Z,54.22
2019-01-31T13:26:47.644Z,54.94
2019-01-31T13:29:19.197Z,55.22
2019-01-31T13:31:50.815Z,56.13
2019-01-31T13:34:22.427Z,55.99
2019-01-31T13:36:54.083Z,56.68
2019-01-31T13:39:25.730Z,56.95
2019-01-31T13:41:57.361Z,57.18
2019-01-31T13:44:31.274Z,57.37
2019-01-31T13:47:03.033Z,57.64
2019-01-31T13:49:36.832Z,58.15
2019-01-31T13:52:12.024Z,58.31
2019-01-31T13:54:43.686Z,58.76
2019-01-31T13:57:15.325Z,58.67
2019-01-31T13:59:47.084Z,58.83
2019-01-31T14:02:18.797Z,59.48
2019-01-31T14:04:50.399Z,59.75
2019-01-31T14:07:27.580Z,59.62
2019-01-31T14:09:58.828Z,59.93
2019-01-31T14:12:31.922Z,59.71
2019-01-31T14:15:04.612Z,60.15
2019-01-31T14:17:36.254Z,60.14
2019-01-31T14:20:12.719Z,60.11
2019-01-31T14:22:44.363Z,60.51
2019-01-31T14:25:16.065Z,60.50
2019-01-31T14:27:50.027Z,60.58
2019-01-31T14:30:38.340Z,61.02
2019-01-31T14:33:11.664Z,61.22
2019-01-31T14:35:43.302Z,61.34
2019-01-31T14:38:14.913Z,61.63
2019-01-31T14:40:46.591Z,61.56
2019-01-31T14:43:18.456Z,61.64
2019-01-31T14:45:50.111Z,61.67
2019-01-31T14:48:22.745Z,61.73
2019-01-31T14:50:55.503Z,61.80
2019-01-31T14:53:27.184Z,62.15
2019-01-31T14:55:58.804Z,62.05
2019-01-31T14:58:30.474Z,61.61
2019-01-31T15:01:02.075Z,61.85
2019-01-31T15:03:33.748Z,61.44
2019-01-31T15:06:05.367Z,61.34
2019-01-31T15:08:38.025Z,61.21
2019-01-31T15:11:09.756Z,61.04
2019-01-31T15:13:42.436Z,60.87
2019-01-31T15:16:14.077Z,61.10
2019-01-31T15:18:45.656Z,61.14
2019-01-31T15:21:17.337Z,61.18
2019-01-31T15:23:50.577Z,61.02
2019-01-31T15:26:22.197Z,60.83
2019-01-31T15:28:53.792Z,60.62
2019-01-31T15:31:25.395Z,60.49
2019-01-31T15:33:57.114Z,60.39
2019-01-31T15:36:28.772Z,60.45
2019-01-31T15:39:00.389Z,60.38
2019-01-31T15:41:33.407Z,60.50
2019-01-31T15:44:05.154Z,60.51
2019-01-31T15:46:36.866Z,60.48
2019-01-31T15:49:08.508Z,60.44
2019-01-31T15:51:40.163Z,60.38
2019-01-31T15:54:14.446Z,60.44
2019-01-31T15:56:47.078Z,60.38
2019-01-31T15:59:18.828Z,60.35
2019-01-31T16:01:50.557Z,60.35
2019-01-31T16:04:22.211Z,60.27
2019-01-31T16:06:53.854Z,60.17
2019-01-31T16:09:25.561Z,60.21
2019-01-31T16:11:59.732Z,60.27
2019-01-31T16:14:30.704Z,60.31
2019-01-31T16:17:02.385Z,60.36
2019-01-31T16:19:34.147Z,60.61
2019-01-31T16:22:06.613Z,60.93
2019-01-31T16:24:38.264Z,61.40
2019-01-31T16:27:09.834Z,61.57
2019-01-31T16:29:41.563Z,61.55
2019-01-31T16:32:13.715Z,61.92
2019-01-31T16:34:47.474Z,62.05
2019-01-31T16:37:19.159Z,62.24
2019-01-31T16:39:50.868Z,62.43
2019-01-31T16:42:22.511Z,62.62
2019-01-31T16:44:54.290Z,62.56
2019-01-31T16:47:27.527Z,62.77
2019-01-31T16:49:59.166Z,63.05
2019-01-31T16:52:30.883Z,63.12
2019-01-31T16:55:02.654Z,63.38
2019-01-31T16:57:34.380Z,63.35
2019-01-31T17:00:16.203Z,63.62
2019-01-31T17:02:47.879Z,63.77
2019-01-31T17:05:22.704Z,64.06
2019-01-31T17:07:54.419Z,64.19
2019-01-31T17:10:27.194Z,64.43
2019-01-31T17:12:58.889Z,64.74
2019-01-31T17:15:32.265Z,64.66
2019-01-31T17:18:03.934Z,64.62
2019-01-31T17:20:39.147Z,64.70
2019-01-31T17:23:10.855Z,64.91
2019-01-31T17:25:42.453Z,64.94
2019-01-31T17:28:14.100Z,64.98
2019-01-31T17:30:45.774Z,65.08
2019-01-31T17:33:17.366Z,64.94
2019-01-31T17:35:48.956Z,64.97
2019-01-31T17:38:20.619Z,64.94
2019-01-31T17:40:52.283Z,64.81
2019-01-31T17:43:23.863Z,64.94
2019-01-31T17:45:55.807Z,65.27
2019-01-31T17:48:27.436Z,65.22
2019-01-31T17:50:59.119Z,65.27
2019-01-31T17:53:30.851Z,65.57
2019-01-31T17:56:02.504Z,65.78
2019-01-31T17:58:35.227Z,66.05
2019-01-31T18:01:07.879Z,65.87
2019-01-31T18:03:39.464Z,66.28
2019-01-31T18:06:11.197Z,66.56
2019-01-31T18:08:42.955Z,67.05
2019-01-31T18:11:14.618Z,66.97
2019-01-31T18:13:46.277Z,67.03
2019-01-31T18:16:17.895Z,67.33
2019-01-31T18:18:49.550Z,67.73
2019-01-31T18:21:21.169Z,68.23
2019-01-31T18:23:52.779Z,68.24
2019-01-31T18:26:24.430Z,68.39
2019-01-31T18:28:56.031Z,68.55
2019-01-31T18:31:27.676Z,68.80
2019-01-31T18:33:59.344Z,68.69
2019-01-31T18:36:30.993Z,68.82
2019-01-31T18:39:03.083Z,68.38
2019-01-31T18:41:34.729Z,68.55
2019-01-31T18:44:06.386Z,69.22
2019-01-31T18:46:38.034Z,69.65
2019-01-31T18:49:09.680Z,69.67
2019-01-31T18:51:41.329Z,69.34
2019-01-31T18:54:15.719Z,69.72
2019-01-31T18:56:47.716Z,69.41
2019-01-31T18:59:19.296Z,69.12
2019-01-31T19:01:50.920Z,69.19
2019-01-31T19:04:22.709Z,69.27
2019-01-31T19:06:54.416Z,69.19
2019-01-31T19:09:26.106Z,69.39
2019-01-31T19:11:57.891Z,69.45
2019-01-31T19:14:29.561Z,70.20
2019-01-31T19:17:03.401Z,70.06
2019-01-31T19:19:35.345Z,69.79
2019-01-31T19:22:10.608Z,69.87
2019-01-31T19:24:43.717Z,69.81
2019-01-31T19:27:15.563Z,70.19
2019-01-31T19:29:47.420Z,70.38
2019-01-31T19:32:19.333Z,70.63
2019-01-31T19:34:51.013Z,70.52
2019-01-31T19:37:22.678Z,70.85
2019-01-31T19:39:54.400Z,71.02
2019-01-31T19:42:26.016Z,71.02
2019-01-31T19:44:58.579Z,70.87
2019-01-31T19:47:30.362Z,71.26
2019-01-31T19:50:01.993Z,71.04
2019-01-31T19:52:34.663Z,70.97
2019-01-31T19:55:17.912Z,71.33
2019-01-31T19:57:51.522Z,71.28
2019-01-31T20:00:27.298Z,71.43
2019-01-31T20:02:58.978Z,71.83
2019-01-31T20:05:32.133Z,71.62
2019-01-31T20:08:13.976Z,71.40
2019-01-31T20:10:48.050Z,71.35
2019-01-31T20:13:19.793Z,71.38
2019-01-31T20:15:51.603Z,71.26
2019-01-31T20:18:23.449Z,71.00
2019-01-31T20:20:55.134Z,71.08
2019-01-31T20:23:26.775Z,71.13
2019-01-31T20:25:58.476Z,71.19
2019-01-31T20:28:30.207Z,70.91
2019-01-31T20:31:01.829Z,70.68
2019-01-31T20:33:33.508Z,70.50
2019-01-31T20:36:05.253Z,70.77
2019-01-31T20:38:36.853Z,70.38
2019-01-31T20:41:08.477Z,70.16
2019-01-31T20:43:40.138Z,70.16
2019-01-31T20:46:11.806Z,69.90
2019-01-31T20:48:43.524Z,69.82
2019-01-31T20:51:15.181Z,69.65
2019-01-31T20:53:46.887Z,69.65
2019-01-31T20:56:18.698Z,69.69
2019-01-31T20:58:50.297Z,69.42
2019-01-31T21:01:22.018Z,69.10
2019-01-31T21:03:53.758Z,69.00
2019-01-31T21:06:25.402Z,68.77
2019-01-31T21:08:57.210Z,68.45
2019-01-31T21:11:28.886Z,68.31
2019-01-31T21:14:00.508Z,68.36
2019-01-31T21:16:32.177Z,68.28
2019-01-31T21:19:03.780Z,68.22
2019-01-31T21:21:35.436Z,68.59
2019-01-31T21:24:07.191Z,69.32
2019-01-31T21:26:38.936Z,69.21
2019-01-31T21:29:10.603Z,69.39
2019-01-31T21:31:44.261Z,69.14
2019-01-31T21:34:17.480Z,69.02
2019-01-31T21:36:49.355Z,68.81
2019-01-31T21:39:20.988Z,68.61
2019-01-31T21:41:52.673Z,68.48
2019-01-31T21:44:24.365Z,68.47
2019-01-31T21:47:02.793Z,68.33
2019-01-31T21:49:30.771Z,68.50
2019-01-31T21:52:02.389Z,69.05
2019-01-31T21:54:34.052Z,68.85
2019-01-31T21:57:05.714Z,68.74
2019-01-31T21:59:37.333Z,68.68
2019-01-31T22:02:09.060Z,68.62
2019-01-31T22:04:40.709Z,68.70
2019-01-31T22:07:12.364Z,68.55
2019-01-31T22:09:44.012Z,68.47
2019-01-31T22:12:15.663Z,68.55
2019-01-31T22:14:47.603Z,68.58
2019-01-31T22:17:19.309Z,68.64
2019-01-31T22:19:50.869Z,68.72
2019-01-31T22:22:22.492Z,68.93
2019-01-31T22:24:54.186Z,69.03
2019-01-31T22:27:25.850Z,68.75
2019-01-31T22:29:57.469Z,68.81
2019-01-31T22:32:29.129Z,69.14
2019-01-31T22:35:00.799Z,69.48
2019-01-31T22:37:32.620Z,69.50
2019-01-31T22:40:06.067Z,69.87
2019-01-31T22:42:37.787Z,69.82
2019-01-31T22:45:16.618Z,69.74
2019-01-31T22:47:48.230Z,69.62
2019-01-31T22:50:25.082Z,70.07
2019-01-31T22:52:56.752Z,69.99
2019-01-31T22:55:28.345Z,69.76
2019-01-31T22:58:00.029Z,69.53
2019-01-31T23:00:49.934Z,69.37
2019-01-31T23:03:21.621Z,69.16
2019-01-31T23:05:53.242Z,68.96
2019-01-31T23:08:24.933Z,68.86
2019-01-31T23:10:56.582Z,68.80
2019-01-31T23:13:28.239Z,68.79
2019-01-31T23:15:59.972Z,68.57
2019-01-31T23:18:31.564Z,68.31
2019-01-31T23:21:03.235Z,68.06
2019-01-31T23:23:34.815Z,68.11
2019-01-31T23:26:07.255Z,67.81
2019-01-31T23:28:38.937Z,67.53
2019-01-31T23:31:10.642Z,67.58
2019-01-31T23:33:42.258Z,67.29
2019-01-31T23:36:13.939Z,67.43
2019-01-31T23:38:45.579Z,67.14
2019-01-31T23:41:17.225Z,66.83
2019-01-31T23:43:48.873Z,66.79
2019-01-31T23:46:20.579Z,66.74
2019-01-31T23:48:52.199Z,66.63
2019-01-31T23:51:23.760Z,66.51
2019-01-31T23:53:55.512Z,66.74
2019-01-31T23:56:27.114Z,66.89
2019-01-31T23:58:58.696Z,67.00
